Time;durP1;ratioP1;P1;durP2;ratioP2;P2;SDS_P1;SDS_P2;PMS_P1;PMS_P2;Temp;Humidity;BMP_temperature;BMP_pressure;BME280_temperature;BME280_humidity;BME280_pressure;Samples;Min_cycle;Max_cycle;Signal;HPM_P1;HPM_P2
2023/06/11 00:01:35;;;;;;;9.50;6.78;;;21.80;99.90;;;;;;5056990;28;20110;-68
2023/06/11 00:04:00;;;;;;;8.02;6.53;;;21.80;99.90;;;;;;5065137;28;20082;-68
2023/06/11 00:06:26;;;;;;;8.68;6.50;;;21.90;99.90;;;;;;5059921;28;20035;-68
2023/06/11 00:08:54;;;;;;;8.35;6.60;;;21.70;99.90;;;;;;5054844;28;20025;-66
2023/06/11 00:11:21;;;;;;;8.85;6.82;;;21.60;99.90;;;;;;5058504;28;20030;-66
2023/06/11 00:13:47;;;;;;;9.20;6.60;;;21.70;99.90;;;;;;5065616;28;20500;-66
2023/06/11 00:16:14;;;;;;;7.07;6.20;;;21.80;99.90;;;;;;5059003;28;20029;-66
2023/06/11 00:18:41;;;;;;;9.57;6.20;;;21.40;99.90;;;;;;5055562;28;20028;-68
2023/06/11 00:21:11;;;;;;;7.32;6.57;;;21.40;99.90;;;;;;5065067;28;20031;-66
2023/06/11 00:23:37;;;;;;;7.90;6.30;;;21.90;99.90;;;;;;5065230;28;20528;-66
2023/06/11 00:26:07;;;;;;;8.73;6.95;;;21.60;99.90;;;;;;5064664;28;20036;-66
2023/06/11 00:28:33;;;;;;;9.13;6.95;;;21.60;99.90;;;;;;5062329;28;20029;-66
2023/06/11 00:31:00;;;;;;;8.98;7.10;;;21.50;99.90;;;;;;5065380;28;20044;-66
2023/06/11 00:33:26;;;;;;;7.65;6.35;;;21.20;99.90;;;;;;5060957;28;20043;-66
2023/06/11 00:35:51;;;;;;;8.20;6.88;;;21.20;99.90;;;;;;5064399;28;20441;-68
2023/06/11 00:38:17;;;;;;;10.07;6.97;;;21.20;99.90;;;;;;5063641;28;20111;-66
2023/06/11 00:40:43;;;;;;;10.30;6.95;;;21.30;99.90;;;;;;5064728;28;20070;-68
2023/06/11 00:43:08;;;;;;;9.63;7.07;;;21.20;99.90;;;;;;5064957;28;20690;-66
2023/06/11 00:45:35;;;;;;;10.30;7.18;;;21.00;99.90;;;;;;5052082;28;20048;-68
2023/06/11 00:48:01;;;;;;;12.00;6.90;;;21.30;99.90;;;;;;5061556;28;20548;-68
2023/06/11 00:50:28;;;;;;;11.20;7.32;;;21.20;99.90;;;;;;5051101;28;20593;-66
2023/06/11 00:52:54;;;;;;;10.68;7.47;;;21.30;99.90;;;;;;5064760;28;20024;-66
2023/06/11 00:55:21;;;;;;;9.43;7.13;;;21.00;99.90;;;;;;5064177;28;20563;-66
2023/06/11 00:57:47;;;;;;;8.10;6.85;;;20.90;99.90;;;;;;5063191;28;20029;-68
2023/06/11 01:00:14;;;;;;;10.55;7.28;;;20.90;99.90;;;;;;5044711;28;20040;-66
2023/06/11 01:02:47;;;;;;;7.85;7.05;;;20.80;99.90;;;;;;5065065;28;20048;-68
2023/06/11 01:05:17;;;;;;;;;;;20.90;99.90;;;;;;5063079;28;20036;-68
2023/06/11 01:07:50;;;;;;;12.73;8.15;;;20.20;99.90;;;;;;5057281;28;20524;-68
2023/06/11 01:10:18;;;;;;;7.82;7.03;;;20.70;99.90;;;;;;5049589;28;20044;-66
2023/06/11 01:12:44;;;;;;;11.40;7.05;;;20.90;99.90;;;;;;5057137;28;20544;-66
2023/06/11 01:15:14;;;;;;;10.82;7.43;;;20.90;99.90;;;;;;5057110;28;20041;-66
2023/06/11 01:17:52;;;;;;;8.27;7.13;;;20.80;99.90;;;;;;5053704;28;20135;-68
2023/06/11 01:20:25;;;;;;;9.02;7.30;;;21.00;99.90;;;;;;5066971;28;20151;-68
2023/06/11 01:23:14;;;;;;;9.30;7.45;;;20.90;99.90;;;;;;5063521;28;20071;-66
2023/06/11 01:26:03;;;;;;;8.70;7.72;;;20.70;99.90;;;;;;5066269;28;20115;-66
2023/06/11 01:28:31;;;;;;;9.55;7.28;;;20.70;99.90;;;;;;5037785;28;20083;-68
2023/06/11 01:30:59;;;;;;;8.93;7.18;;;19.70;99.90;;;;;;5055160;28;20123;-66
2023/06/11 01:33:24;;;;;;;8.18;7.40;;;20.50;99.90;;;;;;5064456;28;20514;-68
2023/06/11 01:35:52;;;;;;;8.60;7.47;;;20.30;99.90;;;;;;5066829;28;20111;-67
2023/06/11 01:38:21;;;;;;;10.77;6.85;;;20.60;99.90;;;;;;5063942;28;20624;-67
2023/06/11 01:40:47;;;;;;;8.93;7.20;;;20.50;99.90;;;;;;5068036;28;20029;-66
2023/06/11 01:43:13;;;;;;;8.38;7.53;;;20.50;99.90;;;;;;5066712;28;20089;-66
2023/06/11 01:45:39;;;;;;;9.35;7.50;;;20.60;99.90;;;;;;5054066;28;20414;-66
2023/06/11 01:48:05;;;;;;;9.15;7.45;;;20.60;99.90;;;;;;5061149;28;20555;-66
2023/06/11 01:50:30;;;;;;;8.25;7.28;;;20.60;99.90;;;;;;5068107;28;20029;-67
2023/06/11 01:52:56;;;;;;;8.77;7.10;;;20.70;99.90;;;;;;5068252;28;20028;-66
2023/06/11 01:55:22;;;;;;;15.43;7.80;;;20.80;99.90;;;;;;5065461;28;20086;-68
2023/06/11 01:57:48;;;;;;;9.00;6.90;;;20.80;99.90;;;;;;5063836;28;20900;-66
2023/06/11 02:00:14;;;;;;;8.18;7.20;;;20.40;99.90;;;;;;5051664;28;20500;-69
2023/06/11 02:02:43;;;;;;;8.70;7.13;;;20.40;99.90;;;;;;5059038;28;20124;-69
2023/06/11 02:05:08;;;;;;;8.63;7.55;;;20.30;99.90;;;;;;5055460;28;20043;-67
2023/06/11 02:07:34;;;;;;;9.00;7.57;;;20.10;99.90;;;;;;5066156;28;20411;-69
2023/06/11 02:09:59;;;;;;;9.90;7.88;;;20.20;99.90;;;;;;5058732;28;20039;-68
2023/06/11 02:12:25;;;;;;;10.73;7.78;;;20.10;99.90;;;;;;5059597;28;20033;-68
2023/06/11 02:14:51;;;;;;;8.02;7.25;;;20.20;99.90;;;;;;5066486;28;20559;-69
2023/06/11 02:17:16;;;;;;;9.90;7.30;;;20.20;99.90;;;;;;5056243;28;20034;-67
2023/06/11 02:19:42;;;;;;;8.70;6.95;;;20.10;99.90;;;;;;5067363;28;20059;-69
2023/06/11 02:22:07;;;;;;;10.98;7.57;;;20.10;99.90;;;;;;5066877;28;20041;-67
2023/06/11 02:24:33;;;;;;;8.43;7.53;;;20.10;99.90;;;;;;5055977;28;20039;-69
2023/06/11 02:26:59;;;;;;;8.93;7.07;;;20.00;99.90;;;;;;5067652;28;20055;-69
2023/06/11 02:29:24;;;;;;;8.13;7.32;;;20.10;99.90;;;;;;5066287;28;20032;-67
2023/06/11 02:31:50;;;;;;;9.45;7.55;;;19.90;99.90;;;;;;5064865;28;20074;-68
2023/06/11 02:34:15;;;;;;;8.32;7.38;;;19.80;99.90;;;;;;5061204;28;20676;-67
2023/06/11 02:36:41;;;;;;;10.13;7.68;;;19.70;99.90;;;;;;5067168;28;20499;-67
2023/06/11 02:39:07;;;;;;;9.27;7.65;;;19.60;99.90;;;;;;5067021;28;20057;-67
2023/06/11 02:41:33;;;;;;;8.60;7.38;;;19.40;99.90;;;;;;5067663;28;20391;-67
2023/06/11 02:43:59;;;;;;;9.02;8.00;;;19.50;99.90;;;;;;5065195;28;20024;-67
2023/06/11 02:46:24;;;;;;;9.00;7.72;;;19.30;99.90;;;;;;5052558;28;20037;-67
2023/06/11 02:48:50;;;;;;;10.07;8.20;;;19.20;99.90;;;;;;5066459;28;20039;-69
2023/06/11 02:51:16;;;;;;;8.38;7.55;;;19.20;99.90;;;;;;5066694;28;20458;-69
2023/06/11 02:53:42;;;;;;;8.70;7.65;;;19.10;99.90;;;;;;5067361;28;20035;-69
2023/06/11 02:56:08;;;;;;;11.10;7.57;;;19.30;99.90;;;;;;5061981;28;20642;-67
2023/06/11 02:58:33;;;;;;;8.70;7.80;;;19.50;99.90;;;;;;5059171;28;20032;-69
2023/06/11 03:00:59;;;;;;;9.50;7.63;;;19.50;99.90;;;;;;5054248;28;20039;-69
2023/06/11 03:03:24;;;;;;;8.70;7.80;;;19.30;99.90;;;;;;5066709;28;20467;-69
2023/06/11 03:05:50;;;;;;;10.15;8.13;;;19.40;99.90;;;;;;5064311;28;20035;-68
2023/06/11 03:08:15;;;;;;;10.85;7.80;;;19.40;99.90;;;;;;5063733;28;20411;-67
2023/06/11 03:10:41;;;;;;;8.75;7.38;;;19.50;99.90;;;;;;5065987;28;20028;-68
2023/06/11 03:13:06;;;;;;;12.23;7.88;;;19.50;99.90;;;;;;5065711;28;20112;-67
2023/06/11 03:15:32;;;;;;;10.23;7.60;;;19.40;99.90;;;;;;5067233;28;20086;-68
2023/06/11 03:17:58;;;;;;;11.40;8.20;;;19.40;99.90;;;;;;5056348;28;20048;-68
2023/06/11 03:20:24;;;;;;;10.43;7.85;;;19.60;99.90;;;;;;5067263;28;20063;-68
2023/06/11 03:22:50;;;;;;;9.35;7.70;;;19.60;99.90;;;;;;5058535;28;20086;-68
2023/06/11 03:25:15;;;;;;;9.95;7.88;;;19.70;99.90;;;;;;5046372;28;20408;-68
2023/06/11 03:27:41;;;;;;;8.18;7.20;;;19.60;99.90;;;;;;5046518;28;20035;-68
2023/06/11 03:30:07;;;;;;;8.00;7.20;;;19.40;99.90;;;;;;5069187;28;20532;-67
2023/06/11 03:32:33;;;;;;;8.48;7.57;;;19.50;99.90;;;;;;5066958;28;20477;-68
2023/06/11 03:34:58;;;;;;;8.30;7.38;;;19.50;99.90;;;;;;5066423;28;20097;-68
2023/06/11 03:37:24;;;;;;;8.50;7.60;;;19.40;99.90;;;;;;5066436;28;20033;-68
2023/06/11 03:39:50;;;;;;;8.50;7.15;;;19.50;99.90;;;;;;5060449;28;20503;-68
2023/06/11 03:42:15;;;;;;;9.45;7.60;;;19.60;99.90;;;;;;5065410;28;20064;-69
2023/06/11 03:44:41;;;;;;;11.13;7.70;;;19.60;99.90;;;;;;5056873;28;20435;-68
2023/06/11 03:47:06;;;;;;;8.48;7.35;;;19.60;99.90;;;;;;5061444;28;20116;-67
2023/06/11 03:49:32;;;;;;;9.35;7.93;;;19.60;99.90;;;;;;5065250;28;20036;-68
2023/06/11 03:51:58;;;;;;;8.95;7.80;;;19.50;99.90;;;;;;5063505;28;20535;-68
2023/06/11 03:54:23;;;;;;;9.10;7.65;;;19.40;99.90;;;;;;5065935;28;20039;-68
2023/06/11 03:56:49;;;;;;;9.45;7.72;;;19.40;99.90;;;;;;5065044;28;20032;-68
2023/06/11 03:59:15;;;;;;;12.95;7.72;;;19.50;99.90;;;;;;5051363;28;20500;-68
2023/06/11 04:01:40;;;;;;;8.43;7.50;;;19.40;99.90;;;;;;5054203;28;20051;-68
2023/06/11 04:04:06;;;;;;;8.73;7.85;;;19.40;99.90;;;;;;5065081;28;20086;-68
2023/06/11 04:06:42;;;;;;;11.98;8.48;;;19.40;99.90;;;;;;5065572;28;20039;-68
2023/06/11 04:09:08;;;;;;;9.13;7.95;;;19.40;99.90;;;;;;5051857;28;20025;-67
2023/06/11 04:11:34;;;;;;;12.05;8.00;;;19.40;99.90;;;;;;5061095;28;20033;-68
2023/06/11 04:14:00;;;;;;;9.00;7.80;;;19.40;99.90;;;;;;5053279;28;20237;-69
2023/06/11 04:16:25;;;;;;;8.50;7.70;;;19.40;99.90;;;;;;5057794;28;20064;-69
2023/06/11 04:18:52;;;;;;;9.77;8.02;;;19.40;99.90;;;;;;5056489;28;20115;-68
2023/06/11 04:21:18;;;;;;;9.10;7.82;;;19.40;99.90;;;;;;5064906;28;20036;-67
2023/06/11 04:23:44;;;;;;;10.23;8.30;;;19.40;99.90;;;;;;5061282;28;20063;-69
2023/06/11 04:26:10;;;;;;;8.77;7.88;;;19.50;99.90;;;;;;5064787;28;20288;-68
2023/06/11 04:28:36;;;;;;;10.68;8.38;;;19.40;99.90;;;;;;5065435;28;20577;-68
2023/06/11 04:31:04;;;;;;;9.80;7.82;;;19.40;99.90;;;;;;5065123;28;20437;-67
2023/06/11 04:33:32;;;;;;;10.95;8.60;;;19.30;99.90;;;;;;5061780;28;20438;-69
2023/06/11 04:36:08;;;;;;;9.73;7.80;;;19.30;99.90;;;;;;5052348;28;20033;-69
2023/06/11 04:38:36;;;;;;;10.35;8.15;;;19.30;99.90;;;;;;5065154;28;20442;-69
2023/06/11 04:41:02;;;;;;;13.23;8.13;;;19.50;99.90;;;;;;5065147;28;20048;-62
2023/06/11 04:43:33;;;;;;;8.98;8.05;;;19.60;99.90;;;;;;5064532;28;20111;-69
2023/06/11 04:45:59;;;;;;;9.70;8.23;;;19.60;99.90;;;;;;5063380;28;20398;-67
2023/06/11 04:48:28;;;;;;;9.63;8.25;;;19.90;99.90;;;;;;5055718;28;20217;-67
2023/06/11 04:50:54;;;;;;;9.07;8.15;;;20.00;99.90;;;;;;5051324;28;20369;-68
2023/06/11 04:53:22;;;;;;;9.30;8.15;;;20.10;99.90;;;;;;5049402;28;20087;-68
2023/06/11 04:55:54;;;;;;;10.65;8.50;;;20.10;99.90;;;;;;5044423;28;20432;-68
2023/06/11 04:58:27;;;;;;;9.45;8.00;;;20.20;99.90;;;;;;5054575;28;20025;-67
2023/06/11 05:00:57;;;;;;;9.53;7.90;;;20.20;99.90;;;;;;5051020;28;20388;-67
2023/06/11 05:03:24;;;;;;;10.15;7.80;;;20.30;99.90;;;;;;5063803;28;20037;-67
2023/06/11 05:05:51;;;;;;;8.52;7.63;;;20.50;99.90;;;;;;5064627;28;20115;-69
2023/06/11 05:08:18;;;;;;;10.05;7.50;;;20.80;99.90;;;;;;5060198;28;20492;-67
2023/06/11 05:10:44;;;;;;;9.55;7.45;;;20.90;99.90;;;;;;5065106;28;20656;-68
2023/06/11 05:13:11;;;;;;;10.40;7.03;;;21.10;99.90;;;;;;5064457;28;20067;-67
2023/06/11 05:15:36;;;;;;;7.93;6.97;;;21.20;99.90;;;;;;5063998;28;20032;-67
2023/06/11 05:18:02;;;;;;;10.32;7.03;;;21.30;99.90;;;;;;5052685;28;20033;-67
2023/06/11 05:20:28;;;;;;;9.93;7.13;;;21.20;99.90;;;;;;5068095;28;20033;-68
2023/06/11 05:22:58;;;;;;;12.27;7.60;;;21.50;99.90;;;;;;5049375;28;20036;-68
2023/06/11 05:25:27;;;;;;;7.57;6.75;;;21.60;99.90;;;;;;5064033;28;20036;-67
2023/06/11 05:27:54;;;;;;;9.45;7.07;;;21.70;99.90;;;;;;5064438;28;20082;-68
2023/06/11 05:30:24;;;;;;;11.52;7.05;;;21.80;99.90;;;;;;5059932;28;20029;-67
2023/06/11 05:32:50;;;;;;;10.18;6.90;;;22.00;99.90;;;;;;5060847;28;20477;-68
2023/06/11 05:35:16;;;;;;;8.23;7.18;;;21.90;99.90;;;;;;5064100;28;20036;-67
2023/06/11 05:37:42;;;;;;;9.10;7.45;;;22.00;99.90;;;;;;5051232;28;20036;-67
2023/06/11 05:40:11;;;;;;;12.93;7.47;;;22.00;99.90;;;;;;5064159;28;20601;-66
2023/06/11 05:42:36;;;;;;;8.77;6.75;;;22.10;99.90;;;;;;5058224;28;20108;-66
2023/06/11 05:45:03;;;;;;;8.00;6.88;;;22.30;99.90;;;;;;5051343;28;20037;-65
2023/06/11 05:47:28;;;;;;;7.65;6.45;;;22.30;99.90;;;;;;5064355;28;20571;-66
2023/06/11 05:49:54;;;;;;;8.13;6.68;;;22.50;99.90;;;;;;5055090;28;20154;-67
2023/06/11 05:52:19;;;;;;;7.53;6.72;;;22.50;99.90;;;;;;5061998;28;20040;-68
2023/06/11 05:54:45;;;;;;;7.63;6.85;;;22.70;99.90;;;;;;5064187;28;20037;-66
2023/06/11 05:57:24;;;;;;;9.52;6.78;;;22.80;99.90;;;;;;5063854;28;20399;-66
2023/06/11 05:59:51;;;;;;;10.00;7.10;;;22.90;99.90;;;;;;5045412;28;20518;-67
2023/06/11 06:02:16;;;;;;;9.32;6.22;;;22.80;99.90;;;;;;5060619;28;20044;-66
2023/06/11 06:04:45;;;;;;;8.57;6.93;;;23.00;99.90;;;;;;5053622;28;20098;-68
2023/06/11 06:07:10;;;;;;;15.27;6.60;;;23.10;99.90;;;;;;5067489;28;20093;-66
2023/06/11 06:09:36;;;;;;;8.80;6.57;;;23.10;99.90;;;;;;5050830;28;20033;-66
2023/06/11 06:12:01;;;;;;;9.23;6.72;;;23.10;99.90;;;;;;5066931;28;20115;-63
2023/06/11 06:14:27;;;;;;;10.30;6.95;;;23.40;99.90;;;;;;5058880;28;20044;-66
2023/06/11 06:16:52;;;;;;;6.47;5.80;;;23.40;99.90;;;;;;5062075;28;20775;-66
2023/06/11 06:19:18;;;;;;;9.15;6.22;;;23.50;99.90;;;;;;5061957;28;20399;-66
2023/06/11 06:21:44;;;;;;;8.75;6.20;;;23.60;99.90;;;;;;5067776;28;20376;-66
2023/06/11 06:24:11;;;;;;;7.25;6.55;;;23.70;99.90;;;;;;5066881;28;20229;-66
2023/06/11 06:26:40;;;;;;;10.45;5.75;;;23.80;99.90;;;;;;5056274;28;20036;-67
2023/06/11 06:29:09;;;;;;;9.30;5.85;;;23.90;99.90;;;;;;5067503;28;20051;-66
2023/06/11 06:31:38;;;;;;;7.47;5.50;;;23.90;99.90;;;;;;5067078;28;20686;-66
2023/06/11 06:34:04;;;;;;;7.10;5.70;;;23.90;99.90;;;;;;5063733;28;20044;-66
2023/06/11 06:36:30;;;;;;;6.97;5.95;;;24.00;99.90;;;;;;5066147;28;20037;-67
2023/06/11 06:38:55;;;;;;;7.97;5.80;;;24.10;99.90;;;;;;5067264;28;20404;-67
2023/06/11 06:41:21;;;;;;;10.40;6.07;;;24.20;99.90;;;;;;5064013;28;20040;-66
2023/06/11 06:43:47;;;;;;;6.82;6.10;;;24.40;99.90;;;;;;5065871;28;20028;-66
2023/06/11 06:46:12;;;;;;;8.27;6.03;;;24.40;99.90;;;;;;5053750;28;20036;-67
2023/06/11 06:48:38;;;;;;;8.07;5.47;;;24.50;99.90;;;;;;5058397;28;20033;-66
2023/06/11 06:51:04;;;;;;;7.25;5.72;;;24.50;99.90;;;;;;5054026;28;20114;-65
2023/06/11 06:53:30;;;;;;;9.30;5.97;;;24.50;99.90;;;;;;5067418;28;20353;-68
2023/06/11 06:55:58;;;;;;;6.75;5.50;;;24.60;99.90;;;;;;5065103;28;20675;-67
2023/06/11 06:58:24;;;;;;;8.23;5.45;;;24.70;99.90;;;;;;5062460;28;20436;-66
2023/06/11 07:00:49;;;;;;;7.00;5.65;;;24.70;99.90;;;;;;5067051;28;20287;-66
2023/06/11 07:03:15;;;;;;;7.93;5.88;;;24.80;99.90;;;;;;5062630;28;20110;-67
2023/06/11 07:05:41;;;;;;;7.75;5.70;;;24.90;99.90;;;;;;5065410;28;20032;-66
2023/06/11 07:08:12;;;;;;;7.00;5.55;;;24.90;99.90;;;;;;5061972;28;20033;-65
2023/06/11 07:10:53;;;;;;;6.57;5.70;;;24.90;99.90;;;;;;5056119;28;20025;-67
2023/06/11 07:13:19;;;;;;;6.82;5.40;;;25.00;99.90;;;;;;5064189;28;20567;-66
2023/06/11 07:15:44;;;;;;;6.18;5.45;;;25.10;99.90;;;;;;5064717;28;20029;-67
2023/06/11 07:18:10;;;;;;;7.45;5.95;;;25.00;99.90;;;;;;5059927;28;20048;-66
2023/06/11 07:20:35;;;;;;;8.27;5.63;;;25.10;99.90;;;;;;5065284;28;20090;-67
2023/06/11 07:23:01;;;;;;;7.97;5.90;;;25.20;99.90;;;;;;5054884;28;20036;-67
2023/06/11 07:25:30;;;;;;;6.30;5.70;;;25.30;99.90;;;;;;5046227;28;20040;-68
2023/06/11 07:28:02;;;;;;;7.05;5.70;;;25.40;99.90;;;;;;5049319;28;20032;-68
2023/06/11 07:30:29;;;;;;;7.35;5.88;;;25.40;99.90;;;;;;5063411;28;20036;-66
2023/06/11 07:32:55;;;;;;;9.88;5.40;;;25.60;99.90;;;;;;5057036;28;20433;-67
2023/06/11 07:35:21;;;;;;;7.63;5.43;;;25.60;99.90;;;;;;5066017;28;20540;-68
2023/06/11 07:37:47;;;;;;;6.45;5.07;;;25.60;99.90;;;;;;5066309;28;20032;-68
2023/06/11 07:40:13;;;;;;;6.47;5.57;;;25.70;99.90;;;;;;5065888;28;20050;-66
2023/06/11 07:42:39;;;;;;;6.10;5.50;;;25.70;99.90;;;;;;5065288;28;20135;-66
2023/06/11 07:45:08;;;;;;;6.18;5.57;;;25.70;99.90;;;;;;5052965;28;20735;-66
2023/06/11 07:47:34;;;;;;;6.22;5.35;;;25.80;99.90;;;;;;5062438;28;20036;-67
2023/06/11 07:50:00;;;;;;;6.60;5.05;;;25.80;99.90;;;;;;5049470;28;20031;-67
2023/06/11 07:52:26;;;;;;;7.38;5.28;;;25.80;99.90;;;;;;5062949;28;20032;-66
2023/06/11 07:54:52;;;;;;;6.43;5.10;;;25.80;99.90;;;;;;5056382;28;20031;-68
2023/06/11 07:57:17;;;;;;;7.00;5.40;;;26.00;99.90;;;;;;5058653;28;20403;-67
2023/06/11 07:59:43;;;;;;;5.97;5.15;;;26.00;99.90;;;;;;5066043;28;20059;-67
2023/06/11 08:02:10;;;;;;;5.50;4.97;;;26.10;99.90;;;;;;5065066;28;20701;-66
2023/06/11 08:04:36;;;;;;;6.57;5.55;;;26.10;99.90;;;;;;5065000;28;20029;-66
2023/06/11 08:07:02;;;;;;;6.78;5.22;;;26.20;99.90;;;;;;5065379;28;20032;-66
2023/06/11 08:09:28;;;;;;;7.68;5.63;;;26.40;99.90;;;;;;5061276;28;20037;-66
2023/06/11 08:11:53;;;;;;;6.80;4.88;;;26.40;99.90;;;;;;5064960;28;21571;-67
2023/06/11 08:14:20;;;;;;;7.80;5.45;;;26.40;99.90;;;;;;5064165;28;20075;-66
2023/06/11 08:16:46;;;;;;;7.72;5.00;;;26.50;99.90;;;;;;5055362;28;20044;-67
2023/06/11 08:19:12;;;;;;;5.75;4.75;;;26.40;99.90;;;;;;5064277;28;20033;-66
2023/06/11 08:21:38;;;;;;;7.53;5.13;;;26.40;99.90;;;;;;5065628;28;20028;-67
2023/06/11 08:24:05;;;;;;;6.13;5.07;;;26.50;99.90;;;;;;5064946;28;20028;-66
2023/06/11 08:26:30;;;;;;;6.85;5.00;;;26.60;99.90;;;;;;5059752;28;20033;-66
2023/06/11 08:28:56;;;;;;;5.57;4.93;;;26.70;99.90;;;;;;5045234;28;20036;-67
2023/06/11 08:31:21;;;;;;;7.10;5.65;;;26.60;99.90;;;;;;5055363;28;20567;-66
2023/06/11 08:33:47;;;;;;;7.78;5.30;;;26.60;99.90;;;;;;5065119;28;20052;-66
2023/06/11 08:36:13;;;;;;;5.72;5.07;;;26.80;99.90;;;;;;5063690;28;20028;-68
2023/06/11 08:38:38;;;;;;;5.70;4.95;;;26.70;99.90;;;;;;5054050;28;20059;-67
2023/06/11 08:41:04;;;;;;;9.32;5.72;;;26.70;99.90;;;;;;5063946;28;20419;-66
2023/06/11 08:43:29;;;;;;;6.47;5.15;;;26.90;99.90;;;;;;5065381;28;20032;-66
2023/06/11 08:45:55;;;;;;;7.57;5.35;;;27.00;99.90;;;;;;5052051;28;20035;-67
2023/06/11 08:48:23;;;;;;;6.95;4.93;;;26.90;99.90;;;;;;5063970;28;20032;-66
2023/06/11 08:50:50;;;;;;;7.32;5.00;;;26.90;99.90;;;;;;5064924;28;20146;-66
2023/06/11 08:53:16;;;;;;;6.40;5.15;;;27.00;99.90;;;;;;5064817;28;20063;-66
2023/06/11 08:55:44;;;;;;;5.75;4.93;;;27.20;99.90;;;;;;5064400;28;20111;-66
2023/06/11 08:58:12;;;;;;;7.32;5.47;;;27.30;99.90;;;;;;5058940;28;20038;-66
2023/06/11 09:00:38;;;;;;;8.00;4.85;;;27.40;99.90;;;;;;5073311;28;20506;-66
2023/06/11 09:03:08;;;;;;;6.50;4.80;;;27.30;99.90;;;;;;5060383;28;20089;-65
2023/06/11 09:05:35;;;;;;;8.40;5.25;;;27.20;99.90;;;;;;5064565;28;20102;-66
2023/06/11 09:08:07;;;;;;;6.50;4.63;;;27.30;99.90;;;;;;5055980;28;20131;-66
2023/06/11 09:10:32;;;;;;;5.95;4.95;;;27.30;99.90;;;;;;5052070;28;20025;-66
2023/06/11 09:13:00;;;;;;;6.03;4.40;;;27.30;99.90;;;;;;5048340;28;20501;-66
2023/06/11 09:15:26;;;;;;;6.72;4.75;;;27.30;99.90;;;;;;5050756;28;20036;-66
2023/06/11 09:17:52;;;;;;;5.53;4.47;;;27.30;99.90;;;;;;5053346;28;20467;-67
2023/06/11 09:20:19;;;;;;;5.13;4.63;;;27.40;99.90;;;;;;5062606;28;20041;-66
2023/06/11 09:22:45;;;;;;;7.53;4.80;;;27.60;99.90;;;;;;5059761;28;20079;-66
2023/06/11 09:25:16;;;;;;;5.85;4.70;;;27.70;99.90;;;;;;5064129;28;20033;-66
2023/06/11 09:27:45;;;;;;;5.28;4.25;;;27.70;99.90;;;;;;5064624;28;20136;-66
2023/06/11 09:30:16;;;;;;;5.78;4.15;;;27.80;99.90;;;;;;5063953;28;20047;-66
2023/06/11 09:32:44;;;;;;;7.13;4.47;;;27.80;99.90;;;;;;5060526;28;20511;-66
2023/06/11 09:35:10;;;;;;;5.22;4.50;;;28.00;99.90;;;;;;5063630;28;20044;-65
2023/06/11 09:37:44;;;;;;;7.32;4.35;;;28.00;99.90;;;;;;5064463;28;20616;-67
2023/06/11 09:40:17;;;;;;;7.30;5.22;;;27.90;99.90;;;;;;5064671;28;20368;-66
2023/06/11 09:42:47;;;;;;;6.53;4.40;;;27.80;99.90;;;;;;5063739;28;20033;-66
2023/06/11 09:45:16;;;;;;;7.97;4.43;;;28.00;99.90;;;;;;5061519;28;20033;-67
2023/06/11 09:47:43;;;;;;;4.57;4.18;;;28.00;99.90;;;;;;5055021;28;20496;-66
2023/06/11 09:50:10;;;;;;;7.20;4.30;;;28.30;99.90;;;;;;5067769;28;20448;-66
2023/06/11 09:52:38;;;;;;;6.57;4.35;;;28.20;99.90;;;;;;5068205;28;20075;-66
2023/06/11 09:55:05;;;;;;;5.53;4.40;;;28.10;99.90;;;;;;5066642;28;20052;-66
2023/06/11 09:57:32;;;;;;;6.53;4.50;;;28.10;99.90;;;;;;5068250;28;20376;-67
2023/06/11 09:59:59;;;;;;;5.03;4.35;;;28.30;99.90;;;;;;5048118;28;20537;-66
2023/06/11 10:02:25;;;;;;;6.50;4.57;;;28.30;99.90;;;;;;5066336;28;20134;-67
2023/06/11 10:04:50;;;;;;;10.00;4.70;;;28.30;99.90;;;;;;5056663;28;20503;-67
2023/06/11 10:07:17;;;;;;;12.25;4.93;;;28.30;99.90;;;;;;5061640;28;20391;-66
2023/06/11 10:09:45;;;;;;;8.25;4.22;;;28.40;99.90;;;;;;5050731;28;20120;-67
2023/06/11 10:12:11;;;;;;;5.32;4.60;;;28.30;99.90;;;;;;5067535;28;20657;-66
2023/06/11 10:14:37;;;;;;;5.55;4.47;;;28.30;99.90;;;;;;5068065;28;20071;-68
2023/06/11 10:17:07;;;;;;;6.63;4.30;;;28.40;99.90;;;;;;5062215;28;20068;-66
2023/06/11 10:19:36;;;;;;;5.68;4.07;;;28.60;99.90;;;;;;5064462;28;20060;-66
2023/06/11 10:22:02;;;;;;;5.88;4.30;;;28.60;99.90;;;;;;5066868;28;20055;-65
2023/06/11 10:24:28;;;;;;;5.45;4.50;;;28.70;99.90;;;;;;5068342;28;20296;-68
2023/06/11 10:27:08;;;;;;;9.75;4.30;;;28.70;99.90;;;;;;5061351;28;20048;-68
2023/06/11 10:29:42;;;;;;;5.07;4.30;;;28.70;99.90;;;;;;5064699;28;20036;-66
2023/06/11 10:32:18;;;;;;;6.10;3.97;;;28.80;99.50;;;;;;5062984;28;20236;-66
2023/06/11 10:34:44;;;;;;;4.88;4.38;;;28.80;98.10;;;;;;5059287;28;20048;-68
2023/06/11 10:37:11;;;;;;;4.85;4.22;;;28.80;98.90;;;;;;5067080;28;20070;-66
2023/06/11 10:39:49;;;;;;;5.03;4.00;;;28.70;98.50;;;;;;5065111;28;20036;-66
2023/06/11 10:42:22;;;;;;;5.88;4.40;;;28.80;99.90;;;;;;5058512;28;20482;-66
2023/06/11 10:44:48;;;;;;;5.30;3.88;;;28.90;99.90;;;;;;5057277;28;20104;-66
2023/06/11 10:47:13;;;;;;;7.68;4.40;;;27.20;99.90;;;;;;5063881;28;20635;-65
2023/06/11 10:49:39;;;;;;;5.18;4.30;;;29.20;99.90;;;;;;5066537;28;20469;-65
2023/06/11 10:52:05;;;;;;;5.35;4.07;;;29.00;96.80;;;;;;5067014;28;20772;-65
2023/06/11 10:54:34;;;;;;;5.03;4.13;;;29.20;99.90;;;;;;5067216;28;20032;-65
2023/06/11 10:57:02;;;;;;;5.22;4.63;;;29.10;99.70;;;;;;5067006;28;20036;-66
2023/06/11 10:59:29;;;;;;;7.35;4.50;;;28.90;94.10;;;;;;5049362;28;20539;-66
2023/06/11 11:01:56;;;;;;;7.95;4.75;;;29.10;96.40;;;;;;5063273;28;20606;-66
2023/06/11 11:04:22;;;;;;;6.93;4.68;;;29.00;96.10;;;;;;5063173;28;20042;-66
2023/06/11 11:06:55;;;;;;;6.60;4.88;;;29.20;95.00;;;;;;5066446;28;20028;-66
2023/06/11 11:09:22;;;;;;;;;;;29.10;94.20;;;;;;5052407;28;20123;-65
2023/06/11 11:11:48;;;;;;;5.10;4.60;;;29.10;94.80;;;;;;5057753;28;20204;-66
2023/06/11 11:14:16;;;;;;;6.82;5.03;;;29.20;96.60;;;;;;5066061;28;20569;-65
2023/06/11 11:16:42;;;;;;;7.40;5.10;;;29.30;95.50;;;;;;5066104;28;20067;-66
2023/06/11 11:19:08;;;;;;;7.68;4.57;;;28.70;90.40;;;;;;5065550;28;20032;-65
2023/06/11 11:21:33;;;;;;;6.43;4.85;;;29.10;89.90;;;;;;5063040;28;20056;-66
2023/06/11 11:23:59;;;;;;;8.55;4.40;;;29.10;92.30;;;;;;5065572;28;20028;-66
2023/06/11 11:26:27;;;;;;;7.18;4.80;;;29.20;93.80;;;;;;5058735;28;20041;-65
2023/06/11 11:28:52;;;;;;;6.72;4.90;;;29.20;90.40;;;;;;5046629;28;20137;-66
2023/06/11 11:31:20;;;;;;;8.48;4.90;;;29.20;88.90;;;;;;5055769;28;20119;-65
2023/06/11 11:33:47;;;;;;;6.13;4.35;;;29.20;91.20;;;;;;5054053;28;20115;-65
2023/06/11 11:36:13;;;;;;;6.65;4.50;;;29.20;93.80;;;;;;5065755;28;20112;-65
2023/06/11 11:38:38;;;;;;;5.60;4.50;;;29.20;89.10;;;;;;5056556;28;20532;-66
2023/06/11 11:41:10;;;;;;;6.75;4.75;;;29.00;77.40;;;;;;5059846;28;20763;-66
2023/06/11 11:43:43;;;;;;;6.75;4.40;;;29.20;88.50;;;;;;5062390;28;20025;-66
2023/06/11 11:46:19;;;;;;;7.78;4.65;;;29.30;87.20;;;;;;5059627;28;20051;-67
2023/06/11 11:48:45;;;;;;;8.77;5.05;;;29.20;82.80;;;;;;5046382;28;20045;-66
2023/06/11 11:51:13;;;;;;;7.25;4.70;;;29.30;85.20;;;;;;5054093;28;20040;-65
2023/06/11 11:53:39;;;;;;;6.30;4.47;;;29.40;78.90;;;;;;5065512;28;20036;-67
2023/06/11 11:56:05;;;;;;;6.90;4.57;;;29.30;74.70;;;;;;5070673;28;20028;-66
2023/06/11 11:58:39;;;;;;;7.03;4.80;;;29.20;70.60;;;;;;5064035;28;20059;-66
2023/06/11 12:01:08;;;;;;;5.70;4.90;;;29.20;74.70;;;;;;5065613;28;20028;-66
2023/06/11 12:03:34;;;;;;;7.97;4.30;;;29.20;69.40;;;;;;5061334;28;20055;-66
2023/06/11 12:06:07;;;;;;;8.00;4.60;;;29.20;67.10;;;;;;5060883;28;20444;-66
2023/06/11 12:08:34;;;;;;;10.43;5.05;;;29.10;65.60;;;;;;5064592;28;20510;-66
2023/06/11 12:11:00;;;;;;;6.55;4.40;;;29.20;64.50;;;;;;5065855;28;20028;-66
2023/06/11 12:13:26;;;;;;;7.68;4.68;;;29.10;63.70;;;;;;5064958;28;20363;-66
2023/06/11 12:15:52;;;;;;;7.07;4.18;;;29.10;61.50;;;;;;5052424;28;20060;-65
2023/06/11 12:18:18;;;;;;;5.03;4.20;;;29.20;65.60;;;;;;5057683;28;20471;-66
2023/06/11 12:20:44;;;;;;;7.70;4.85;;;29.20;67.30;;;;;;5065798;28;20040;-66
2023/06/11 12:23:10;;;;;;;9.63;4.72;;;29.20;60.70;;;;;;5064885;28;20033;-66
2023/06/11 12:25:36;;;;;;;9.40;4.40;;;29.10;60.80;;;;;;5065370;28;20067;-67
2023/06/11 12:28:02;;;;;;;7.15;4.63;;;29.20;60.70;;;;;;5059838;28;20051;-65
2023/06/11 12:30:30;;;;;;;6.03;4.60;;;29.20;64.40;;;;;;5065347;28;20036;-66
2023/06/11 12:32:57;;;;;;;10.32;5.53;;;29.20;63.40;;;;;;5061173;28;20032;-67
2023/06/11 12:35:23;;;;;;;6.57;4.50;;;29.20;59.60;;;;;;5064409;28;20476;-67
2023/06/11 12:37:48;;;;;;;9.80;5.03;;;29.20;57.50;;;;;;5065288;28;20094;-66
2023/06/11 12:40:14;;;;;;;8.93;4.70;;;29.20;58.90;;;;;;5052934;28;20033;-66
2023/06/11 12:42:39;;;;;;;6.35;4.60;;;29.40;59.60;;;;;;5065300;28;20048;-65
2023/06/11 12:45:06;;;;;;;6.63;4.57;;;29.40;59.80;;;;;;5059178;28;20365;-66